Time;durP1;ratioP1;P1;durP2;ratioP2;P2;SDS_P1;SDS_P2;PMS_P1;PMS_P2;Temp;Humidity;BMP_temperature;BMP_pressure;BME280_temperature;BME280_humidity;BME280_pressure;Samples;Min_cycle;Max_cycle;Signal;HPM_P1;HPM_P2
2022/10/03 00:02:22;;;;;;;54.33;24.80;;;;;;;14.82;91.20;97722.13;4973404;28;20035;-84
2022/10/03 00:07:43;;;;;;;52.65;24.02;;;;;;;14.86;91.04;97706.44;4976280;28;20414;-84
2022/10/03 00:10:34;;;;;;;46.22;24.05;;;;;;;14.90;90.92;97707.25;4957282;29;20394;-84
2022/10/03 00:13:39;;;;;;;54.53;24.63;;;;;;;14.91;90.91;97695.88;4962581;28;20113;-84
2022/10/03 00:16:36;;;;;;;53.10;23.55;;;;;;;14.83;90.76;97676.94;4916703;29;20131;-85
2022/10/03 00:19:13;;;;;;;47.65;23.35;;;;;;;14.95;90.80;97693.94;4951519;29;20183;-83
2022/10/03 00:22:02;;;;;;;46.50;23.55;;;;;;;14.99;90.83;97685.72;4972599;28;20038;-85
2022/10/03 00:24:52;;;;;;;45.75;23.40;;;;;;;15.00;90.84;97690.84;4975708;28;20043;-84
2022/10/03 00:27:47;;;;;;;45.97;23.67;;;;;;;15.07;90.98;97679.09;4958059;28;20038;-85
2022/10/03 00:30:19;;;;;;;46.08;24.02;;;;;;;14.96;90.94;97656.22;4973736;28;20069;-85
2022/10/03 00:33:15;;;;;;;48.67;24.73;;;;;;;15.12;91.21;97666.94;4975432;28;20178;-83
2022/10/03 00:36:10;;;;;;;48.67;23.93;;;;;;;15.15;91.25;97664.19;4956820;29;20039;-84
2022/10/03 00:38:39;;;;;;;49.08;24.10;;;;;;;15.17;91.24;97670.13;4950008;28;20057;-80
2022/10/03 00:41:47;;;;;;;46.10;23.38;;;;;;;15.22;91.51;97661.50;4971255;28;20050;-80
2022/10/03 00:44:19;;;;;;;46.55;24.35;;;;;;;15.25;91.42;97659.94;4896984;29;20063;-80
2022/10/03 00:47:04;;;;;;;42.05;22.75;;;;;;;15.26;91.42;97658.75;4897039;29;20544;-80
2022/10/03 00:50:14;;;;;;;41.58;23.42;;;;;;;15.32;91.38;97650.94;4897137;29;20036;-85
2022/10/03 00:52:49;;;;;;;48.17;25.30;;;;;;;15.35;91.28;97647.41;4835542;29;20056;-84
2022/10/03 00:55:39;;;;;;;47.53;26.40;;;;;;;15.37;91.21;97653.34;4873487;29;20052;-83
2022/10/03 00:58:40;;;;;;;51.65;26.13;;;;;;;15.37;91.17;97654.13;4896634;29;20577;-85
2022/10/03 01:01:26;;;;;;;50.55;27.23;;;;;;;15.40;91.20;97649.81;4885531;29;20633;-84
2022/10/03 01:04:11;;;;;;;51.50;27.00;;;;;;;15.42;91.18;97648.22;4886693;29;20080;-85
2022/10/03 01:06:53;;;;;;;48.35;26.67;;;;;;;15.44;90.93;97637.63;4896796;29;20132;-83
2022/10/03 01:09:34;;;;;;;52.05;28.20;;;;;;;15.47;90.97;97638.81;4897023;29;20131;-84
2022/10/03 01:12:09;;;;;;;53.97;27.55;;;;;;;15.48;90.94;97629.38;4896084;29;20132;-83
2022/10/03 01:14:50;;;;;;;47.90;27.52;;;;;;;15.44;91.04;97612.06;4895587;29;20196;-83
2022/10/03 01:17:30;;;;;;;61.22;27.90;;;;;;;15.51;91.18;97612.88;4896738;29;20565;-84
2022/10/03 01:20:25;;;;;;;54.85;27.63;;;;;;;15.44;91.05;97607.34;4940270;28;20063;-83
2022/10/03 01:23:07;;;;;;;52.72;27.13;;;;;;;15.55;90.90;97607.38;4973286;28;20070;-84
2022/10/03 01:25:56;;;;;;;48.70;26.13;;;;;;;15.50;91.11;97594.00;4975330;28;20043;-84
2022/10/03 01:32:01;;;;;;;51.92;25.17;;;;;;;15.60;90.90;97593.25;4968559;28;20034;-85
2022/10/03 01:34:35;;;;;;;46.25;23.92;;;;;;;15.55;91.04;97576.31;4973071;28;20444;-84
2022/10/03 01:37:10;;;;;;;49.90;26.17;;;;;;;15.48;91.13;97569.59;4974997;28;20085;-85
2022/10/03 01:39:55;;;;;;;50.13;25.58;;;;;;;15.59;91.26;97588.91;4974730;28;20035;-84
2022/10/03 01:43:04;;;;;;;52.22;25.92;;;;;;;15.62;91.38;97573.56;4974639;28;20052;-84
2022/10/03 01:46:07;;;;;;;48.83;24.52;;;;;;;15.62;91.49;97579.84;4927884;28;20066;-84
2022/10/03 01:48:49;;;;;;;55.03;25.67;;;;;;;15.62;91.49;97579.84;4938476;29;20058;-84
2022/10/03 01:51:22;;;;;;;52.50;26.52;;;;;;;15.66;91.45;97571.59;4962074;28;20051;-83
2022/10/03 01:54:16;;;;;;;58.05;25.52;;;;;;;15.70;91.38;97575.22;4968116;28;20047;-84
2022/10/03 01:57:05;;;;;;;58.05;26.90;;;;;;;15.65;91.40;97557.03;4964947;28;20050;-83
2022/10/03 01:59:49;;;;;;;56.67;27.60;;;;;;;15.75;91.46;97561.03;4964034;28;20141;-83
2022/10/03 02:02:38;;;;;;;58.53;27.35;;;;;;;15.73;91.26;97561.44;4974352;28;20047;-84
2022/10/03 02:05:11;;;;;;;59.45;26.05;;;;;;;15.72;91.29;97559.84;4971145;28;20157;-84
2022/10/03 02:08:00;;;;;;;60.50;27.30;;;;;;;15.76;91.53;97553.56;4974470;28;20042;-83
2022/10/03 02:10:39;;;;;;;55.65;27.02;;;;;;;15.77;91.54;97557.91;4956706;28;20046;-83
2022/10/03 02:13:17;;;;;;;58.17;26.70;;;;;;;15.79;91.63;97552.78;4974198;28;20061;-84
2022/10/03 02:16:21;;;;;;;58.75;26.02;;;;;;;15.76;91.66;97534.28;4955954;28;20050;-83
2022/10/03 02:18:54;;;;;;;54.47;26.70;;;;;;;15.82;91.58;97543.72;4963453;28;20559;-82
2022/10/03 02:21:26;;;;;;;57.47;25.10;;;;;;;15.84;91.63;97541.38;4963619;28;20077;-84
2022/10/03 02:24:20;;;;;;;57.08;25.20;;;;;;;15.87;91.67;97537.84;4949525;28;20043;-84
2022/10/03 02:27:27;;;;;;;47.20;23.27;;;;;;;15.87;91.75;97533.13;4966890;28;20057;-83
2022/10/03 02:30:20;;;;;;;44.38;22.80;;;;;;;15.90;91.66;97534.31;4973688;28;20493;-84
2022/10/03 02:33:24;;;;;;;46.05;22.48;;;;;;;15.93;91.77;97533.53;4973643;28;20065;-85
2022/10/03 02:36:11;;;;;;;41.00;22.10;;;;;;;15.94;91.73;97530.38;4969697;28;20579;-85
2022/10/03 02:39:05;;;;;;;35.58;20.65;;;;;;;15.96;91.64;97550.06;4954447;29;20047;-84
2022/10/03 02:41:54;;;;;;;38.83;20.00;;;;;;;15.94;91.74;97518.56;4954425;29;20051;-84
2022/10/03 02:44:56;;;;;;;31.95;19.20;;;;;;;15.93;92.01;97539.03;4967565;28;20046;-84
2022/10/03 02:47:28;;;;;;;32.47;18.85;;;;;;;15.98;92.00;97546.91;4969469;28;20049;-82
2022/10/03 02:50:18;;;;;;;35.88;19.80;;;;;;;15.99;92.00;97531.94;4973665;28;20480;-84
2022/10/03 02:52:44;;;;;;;36.67;18.05;;;;;;;16.00;91.88;97532.75;4974478;28;20045;-90
2022/10/03 02:55:18;;;;;;;30.17;18.93;;;;;;;16.01;91.93;97526.84;4974704;28;20045;-86
2022/10/03 02:58:15;;;;;;;29.55;18.63;;;;;;;16.01;92.00;97517.78;4971460;28;20046;-83
2022/10/03 03:00:56;;;;;;;29.58;19.13;;;;;;;16.04;91.83;97526.06;4973727;28;20121;-82
2022/10/03 03:03:54;;;;;;;31.27;19.05;;;;;;;16.07;91.65;97521.72;4954266;29;20066;-82
2022/10/03 03:06:35;;;;;;;31.58;18.73;;;;;;;16.05;91.73;97516.59;4955446;28;20150;-82
2022/10/03 03:09:38;;;;;;;33.95;18.55;;;;;;;16.05;91.94;97524.88;4972636;28;20043;-82
2022/10/03 03:12:38;;;;;;;28.83;18.60;;;;;;;16.07;91.81;97517.00;4972920;28;20054;-85
2022/10/03 03:15:45;;;;;;;31.08;18.15;;;;;;;16.11;91.84;97511.50;4972819;28;20047;-83
2022/10/03 03:18:33;;;;;;;28.40;16.83;;;;;;;16.14;91.71;97499.69;4968853;28;20142;-83
2022/10/03 03:21:37;;;;;;;28.17;17.80;;;;;;;16.12;91.59;97502.03;4953729;28;20055;-84
2022/10/03 03:24:16;;;;;;;25.95;16.65;;;;;;;16.13;91.79;97503.63;4897404;29;20044;-83
2022/10/03 03:27:34;;;;;;;31.05;16.92;;;;;;;16.10;91.64;97488.66;4909747;29;20047;-83
2022/10/03 03:30:22;;;;;;;24.23;15.75;;;;;;;16.13;91.63;97498.91;4896049;29;20040;-83
2022/10/03 03:33:27;;;;;;;25.20;15.90;;;;;;;16.16;91.42;97497.31;4916425;29;20044;-82
2022/10/03 03:36:18;;;;;;;24.27;16.15;;;;;;;16.16;91.38;97489.06;4932190;29;20079;-82
2022/10/03 03:39:03;;;;;;;22.92;16.02;;;;;;;16.18;91.38;97498.47;4926207;29;20087;-83
2022/10/03 03:42:01;;;;;;;23.13;15.55;;;;;;;16.21;91.23;97491.41;4914527;29;20095;-84
2022/10/03 03:44:43;;;;;;;30.67;17.88;;;;;;;16.14;91.08;97478.41;4931031;29;20059;-83
2022/10/03 03:47:42;;;;;;;29.13;19.20;;;;;;;16.16;91.04;97459.53;4924951;29;20036;-83
2022/10/03 03:50:22;;;;;;;31.20;18.67;;;;;;;16.27;91.14;97476.03;4901326;29;21579;-82
2022/10/03 03:53:12;;;;;;;27.77;18.92;;;;;;;16.27;90.94;97478.00;4897573;29;20043;-83
2022/10/03 03:55:50;;;;;;;29.55;19.25;;;;;;;16.29;91.03;97476.44;4912963;29;20553;-83
2022/10/03 03:58:44;;;;;;;27.48;20.00;;;;;;;16.28;90.92;97465.78;4917367;29;20093;-80
2022/10/03 04:01:36;;;;;;;27.20;18.73;;;;;;;16.26;90.84;97454.38;4923537;29;20036;-80
2022/10/03 04:04:28;;;;;;;29.98;19.80;;;;;;;16.24;90.92;97451.22;4945434;29;20051;-81
2022/10/03 04:07:20;;;;;;;29.88;19.58;;;;;;;16.29;90.93;97451.63;4935607;29;20509;-83
2022/10/03 04:10:16;;;;;;;28.48;19.75;;;;;;;16.34;90.78;97436.66;4952708;29;20035;-78
2022/10/03 04:13:01;;;;;;;33.40;20.35;;;;;;;16.36;90.82;97434.28;4947801;29;20426;-82
2022/10/03 04:15:35;;;;;;;34.03;20.15;;;;;;;16.36;90.91;97439.81;4952179;29;20540;-80
2022/10/03 04:21:22;;;;;;;33.00;20.92;;;;;;;16.30;91.02;97416.56;4946475;29;20047;-80
2022/10/03 04:24:05;;;;;;;32.92;22.63;;;;;;;16.36;90.89;97423.25;4950441;29;20629;-80
2022/10/03 04:26:50;;;;;;;38.00;24.95;;;;;;;16.36;90.87;97429.56;4946541;29;20130;-78
2022/10/03 04:29:26;;;;;;;39.67;27.38;;;;;;;16.39;90.92;97416.91;4952767;29;20556;-87
2022/10/03 04:32:10;;;;;;;48.80;29.25;;;;;;;16.40;90.90;97413.78;4942972;29;20043;-85
2022/10/03 04:35:09;;;;;;;51.42;32.60;;;;;;;16.42;90.67;97418.88;4952319;29;20043;-81
2022/10/03 04:37:55;;;;;;;53.80;33.95;;;;;;;16.45;90.72;97409.81;4952996;28;20055;-82
2022/10/03 04:40:40;;;;;;;48.17;31.25;;;;;;;16.48;90.54;97409.03;4939392;29;20457;-76
2022/10/03 04:43:33;;;;;;;40.58;26.13;;;;;;;16.51;90.53;97412.97;4955171;29;20043;-76
2022/10/03 04:46:21;;;;;;;38.70;23.02;;;;;;;16.55;90.36;97408.22;4956385;29;20134;-76
2022/10/03 04:48:50;;;;;;;30.50;18.80;;;;;;;16.59;89.82;97409.00;4954515;29;20042;-75
2022/10/03 04:51:43;;;;;;;31.17;18.58;;;;;;;16.61;89.74;97401.88;4955972;28;20051;-77
2022/10/03 04:54:23;;;;;;;27.13;17.02;;;;;;;16.66;89.54;97397.94;4956091;29;20075;-74
2022/10/03 04:56:55;;;;;;;24.00;17.35;;;;;;;16.69;89.22;97397.16;4956187;29;20130;-74
2022/10/03 04:59:35;;;;;;;25.65;15.80;;;;;;;16.73;89.30;97386.88;4973884;28;20138;-74
2022/10/03 05:02:02;;;;;;;29.08;16.83;;;;;;;16.79;88.98;97381.78;4975097;28;20039;-73
2022/10/03 05:04:31;;;;;;;24.77;15.75;;;;;;;16.83;88.82;97382.53;4973081;28;20038;-75
2022/10/03 05:07:16;;;;;;;22.70;15.73;;;;;;;16.84;88.50;97389.59;4974913;28;20062;-78
2022/10/03 05:09:51;;;;;;;26.98;14.20;;;;;;;16.85;87.96;97388.41;4973691;28;20045;-74
2022/10/03 05:12:27;;;;;;;20.50;13.85;;;;;;;16.83;88.01;97388.84;4965849;28;20054;-74
2022/10/03 05:15:22;;;;;;;21.15;13.85;;;;;;;16.84;87.66;97384.09;4959605;28;20062;-77
2022/10/03 05:18:05;;;;;;;23.40;14.20;;;;;;;16.78;87.65;97374.66;4965637;28;20078;-76
2022/10/03 05:20:37;;;;;;;23.65;13.88;;;;;;;16.77;87.93;97373.09;4973155;28;20178;-73
2022/10/03 05:23:21;;;;;;;22.48;13.55;;;;;;;16.83;87.49;97365.97;4964802;28;20054;-75
2022/10/03 05:25:57;;;;;;;22.27;13.10;;;;;;;16.82;87.35;97345.88;4968104;28;20133;-86
2022/10/03 05:28:39;;;;;;;22.95;13.20;;;;;;;16.83;87.17;97352.19;4956242;29;20375;-75
2022/10/03 05:31:26;;;;;;;20.02;13.18;;;;;;;16.86;86.83;97343.09;4961703;28;20047;-73
2022/10/03 05:34:14;;;;;;;20.90;12.38;;;;;;;16.85;86.96;97342.31;4974091;28;20051;-75
2022/10/03 05:37:08;;;;;;;25.08;12.32;;;;;;;16.89;86.79;97329.28;4974455;28;20042;-81
2022/10/03 05:39:43;;;;;;;19.17;13.23;;;;;;;16.85;86.99;97324.94;4974946;28;20105;-80
2022/10/03 05:42:47;;;;;;;17.15;11.90;;;;;;;16.80;87.07;97304.09;4955107;28;20038;-75
2022/10/03 05:45:29;;;;;;;16.45;11.25;;;;;;;16.77;86.99;97306.88;4973110;28;20050;-75
2022/10/03 05:48:22;;;;;;;22.95;11.27;;;;;;;16.74;87.11;97319.47;4944432;29;20572;-78
2022/10/03 05:51:22;;;;;;;20.60;11.00;;;;;;;16.78;87.05;97334.06;4953915;29;20417;-81
2022/10/03 05:53:51;;;;;;;18.17;11.32;;;;;;;16.78;86.72;97336.81;4966936;28;20062;-73
2022/10/03 05:56:49;;;;;;;22.15;11.32;;;;;;;16.81;86.81;97321.44;4968229;28;20515;-81
2022/10/03 05:59:49;;;;;;;18.10;11.57;;;;;;;16.79;86.56;97315.56;4967459;28;20117;-76
2022/10/03 06:02:36;;;;;;;20.63;10.15;;;;;;;16.78;86.71;97302.91;4993682;28;20046;-83
2022/10/03 06:05:42;;;;;;;28.88;12.30;;;;;;;16.76;86.49;97302.56;4978705;28;20053;-77
2022/10/03 06:08:59;;;;;;;26.45;10.45;;;;;;;16.67;86.20;97292.72;4955406;29;20053;-83
2022/10/03 06:11:56;;;;;;;19.88;10.18;;;;;;;16.82;86.01;97304.50;4924501;28;20470;-75
2022/10/03 06:14:50;;;;;;;18.00;10.38;;;;;;;16.82;85.89;97307.25;4987365;28;20112;-75
2022/10/03 06:17:27;;;;;;;21.50;9.40;;;;;;;16.83;85.72;97303.28;4974053;28;20038;-84
2022/10/03 06:20:13;;;;;;;17.38;9.77;;;;;;;16.81;85.50;97300.13;4974064;28;20097;-79
2022/10/03 06:23:03;;;;;;;29.88;9.43;;;;;;;16.79;85.27;97302.53;4974306;28;20576;-74
2022/10/03 06:25:54;;;;;;;20.40;9.77;;;;;;;16.78;85.51;97308.44;4956375;28;20090;-80
2022/10/03 06:28:35;;;;;;;16.17;9.45;;;;;;;16.77;85.13;97317.91;4973993;28;20053;-74
2022/10/03 06:31:35;;;;;;;20.20;8.63;;;;;;;16.75;84.55;97301.75;4973882;28;20536;-84
2022/10/03 06:34:21;;;;;;;15.00;8.10;;;;;;;16.80;84.31;97295.03;4953492;28;20191;-81
2022/10/03 06:37:15;;;;;;;20.27;7.75;;;;;;;16.79;84.03;97304.50;4972616;28;20455;-81
2022/10/03 06:39:53;;;;;;;14.98;7.93;;;;;;;16.80;83.62;97286.75;4971365;28;20039;-85
2022/10/03 06:42:41;;;;;;;19.92;7.53;;;;;;;16.76;83.40;97294.28;4973965;28;20053;-85
2022/10/03 06:45:10;;;;;;;15.07;7.72;;;;;;;16.71;83.56;97311.22;4973484;28;20146;-82
2022/10/03 06:48:07;;;;;;;21.13;7.25;;;;;;;16.66;83.64;97321.50;4957966;28;20046;-82
2022/10/03 06:51:12;;;;;;;21.02;8.57;;;;;;;16.63;83.79;97305.75;4983700;28;20051;-84
2022/10/03 06:54:23;;;;;;;18.38;7.50;;;;;;;16.64;83.91;97314.78;4946106;28;20133;-84
2022/10/03 06:57:07;;;;;;;20.23;7.43;;;;;;;16.59;84.03;97321.53;4960067;28;20045;-82
2022/10/03 06:59:51;;;;;;;16.33;7.68;;;;;;;16.61;83.94;97316.38;4973601;28;20149;-84
2022/10/03 07:02:45;;;;;;;14.82;7.78;;;;;;;16.56;83.84;97316.03;4972672;28;20551;-85
2022/10/03 07:05:45;;;;;;;17.33;7.50;;;;;;;16.59;84.40;97316.00;4973481;28;20039;-84
2022/10/03 07:08:35;;;;;;;25.55;8.15;;;;;;;16.57;83.98;97318.38;4981609;28;20047;-79
2022/10/03 07:11:09;;;;;;;23.98;8.27;;;;;;;16.55;84.32;97317.97;4992942;28;20133;-86
2022/10/03 07:13:44;;;;;;;15.35;7.70;;;;;;;16.56;84.17;97314.06;4992919;28;20074;-84
2022/10/03 07:16:19;;;;;;;18.02;7.68;;;;;;;16.55;83.99;97317.97;4992713;28;20046;-85
2022/10/03 07:19:22;;;;;;;16.75;7.90;;;;;;;16.57;83.62;97317.59;4976375;28;20050;-84
2022/10/03 07:22:14;;;;;;;23.23;7.82;;;;;;;16.50;83.67;97318.41;4973123;28;20531;-83
2022/10/03 07:25:17;;;;;;;21.13;8.38;;;;;;;16.51;84.03;97314.47;4972932;28;20047;-85
2022/10/03 07:27:46;;;;;;;16.50;7.93;;;;;;;16.51;84.08;97314.47;4972082;28;20129;-84
2022/10/03 07:30:20;;;;;;;19.10;8.10;;;;;;;16.51;84.13;97300.66;4973074;28;20069;-90
2022/10/03 07:32:49;;;;;;;20.52;6.78;;;;;;;16.52;83.53;97318.00;4972908;28;20077;-85
2022/10/03 07:38:59;;;;;;;13.93;6.85;;;;;;;16.48;83.69;97317.22;4955325;28;20113;-80
2022/10/03 07:41:31;;;;;;;19.25;7.32;;;;;;;16.50;84.07;97317.63;4963907;28;20055;-85
2022/10/03 07:44:20;;;;;;;17.73;7.20;;;;;;;16.45;84.41;97318.81;4974154;28;20078;-86
2022/10/03 07:47:09;;;;;;;16.27;7.57;;;;;;;16.44;84.14;97315.28;4975203;28;20055;-83
2022/10/03 07:49:53;;;;;;;13.93;6.82;;;;;;;16.43;84.50;97308.19;4981303;28;20043;-88
2022/10/03 07:52:41;;;;;;;14.57;7.18;;;;;;;16.37;84.75;97315.31;4972810;28;20150;-85
2022/10/03 07:55:25;;;;;;;14.52;6.80;;;;;;;16.38;84.87;97311.34;4973024;28;20106;-85
2022/10/03 07:58:11;;;;;;;15.90;6.88;;;;;;;16.33;84.93;97317.31;4972546;28;20138;-84
2022/10/03 08:00:47;;;;;;;16.33;7.22;;;;;;;16.32;85.15;97320.44;4954859;28;20041;-84
2022/10/03 08:03:43;;;;;;;14.07;6.47;;;;;;;16.30;85.21;97309.84;4972600;28;20117;-81
2022/10/03 08:06:14;;;;;;;;;;;;;;;16.32;85.02;97325.97;4973133;28;20050;-81
2022/10/03 08:08:59;;;;;;;13.75;6.07;;;;;;;16.24;85.17;97316.94;4987633;28;19922;-87
2022/10/03 08:12:03;;;;;;;12.88;6.18;;;;;;;16.25;85.37;97323.22;4955229;28;20039;-85
2022/10/03 08:14:48;;;;;;;7.93;5.97;;;;;;;16.33;85.46;97305.50;4976330;28;20081;-83
2022/10/03 08:17:51;;;;;;;16.25;7.38;;;;;;;16.35;85.27;97308.63;4991764;28;20510;-84
2022/10/03 08:20:32;;;;;;;12.45;6.43;;;;;;;16.39;85.07;97309.38;4976964;28;20050;-85
2022/10/03 08:23:07;;;;;;;25.90;6.50;;;;;;;16.43;85.35;97321.22;4939838;29;20612;-84
2022/10/03 08:25:55;;;;;;;9.90;5.95;;;;;;;16.42;84.71;97322.38;4956814;28;20106;-80
2022/10/03 08:28:48;;;;;;;10.73;5.75;;;;;;;16.45;84.76;97332.59;4956648;29;20043;-79
2022/10/03 08:31:48;;;;;;;13.55;6.03;;;;;;;16.46;84.76;97334.19;4960552;28;20500;-79
2022/10/03 08:34:42;;;;;;;16.95;5.57;;;;;;;16.39;84.42;97329.50;4953219;28;20528;-82
2022/10/03 08:37:33;;;;;;;15.10;5.45;;;;;;;16.34;84.64;97337.38;4975358;28;20053;-81
2022/10/03 08:40:28;;;;;;;11.55;5.88;;;;;;;16.34;84.57;97327.13;4975756;28;20050;-81
2022/10/03 08:43:16;;;;;;;16.35;6.07;;;;;;;16.35;84.61;97333.44;4975566;28;20054;-80
2022/10/03 08:46:04;;;;;;;10.23;5.20;;;;;;;16.34;84.77;97338.16;4975805;28;20054;-80
2022/10/03 08:49:01;;;;;;;14.60;5.72;;;;;;;16.37;84.65;97342.09;4975773;28;20054;-80
2022/10/03 08:51:55;;;;;;;9.43;5.10;;;;;;;16.38;84.93;97349.19;4975854;28;20542;-81
2022/10/03 08:54:49;;;;;;;8.88;4.82;;;;;;;16.42;84.43;97347.19;4975149;28;20059;-81
2022/10/03 08:57:58;;;;;;;11.80;5.15;;;;;;;16.37;84.71;97348.41;4975465;28;20042;-81
2022/10/03 09:00:30;;;;;;;10.10;4.95;;;;;;;16.37;84.27;97353.13;4972160;28;20042;-80
2022/10/03 09:03:38;;;;;;;15.13;5.63;;;;;;;16.35;84.49;97355.50;4974993;28;20077;-79
2022/10/03 09:06:23;;;;;;;17.92;5.15;;;;;;;16.29;84.59;97348.81;4929888;29;20049;-79
2022/10/03 09:08:52;;;;;;;13.38;5.60;;;;;;;16.33;84.66;97360.63;4938748;29;20050;-79
2022/10/03 09:11:31;;;;;;;14.45;5.03;;;;;;;16.32;84.54;97345.25;4956064;29;20043;-80
2022/10/03 09:14:35;;;;;;;11.52;4.25;;;;;;;16.28;84.13;97348.03;4961159;28;20058;-79
2022/10/03 09:17:20;;;;;;;14.48;5.30;;;;;;;16.30;84.36;97358.69;4975259;28;20523;-79
2022/10/03 09:20:16;;;;;;;16.83;5.53;;;;;;;16.30;84.04;97350.41;4975426;28;20398;-79
2022/10/03 09:23:03;;;;;;;8.82;4.47;;;;;;;16.45;84.46;97363.72;4975446;28;20077;-78
2022/10/03 09:25:44;;;;;;;8.38;4.63;;;;;;;16.56;84.10;97360.16;4974231;28;20047;-79
2022/10/03 09:28:35;;;;;;;10.57;4.45;;;;;;;16.58;83.74;97361.31;4975048;28;20050;-78
2022/10/03 09:31:39;;;;;;;13.25;3.75;;;;;;;16.64;82.96;97367.22;4974994;28;20097;-78
2022/10/03 09:34:32;;;;;;;10.25;5.03;;;;;;;16.60;83.25;97374.72;4974302;28;20105;-77
2022/10/03 09:37:17;;;;;;;10.25;4.28;;;;;;;16.66;83.23;97365.63;4955601;29;20126;-76
2022/10/03 09:40:02;;;;;;;9.25;3.67;;;;;;;16.73;83.01;97372.31;4955551;29;20047;-77
2022/10/03 09:43:09;;;;;;;16.23;3.90;;;;;;;16.66;82.58;97371.16;4955509;28;20145;-78
2022/10/03 09:46:17;;;;;;;13.82;3.85;;;;;;;16.60;82.58;97358.94;4962866;28;20047;-79
2022/10/03 09:49:24;;;;;;;4.72;3.22;;;;;;;16.62;82.50;97377.84;4974706;28;20534;-79
2022/10/03 09:52:08;;;;;;;8.85;4.40;;;;;;;16.71;82.99;97380.19;4974928;28;20050;-81
2022/10/03 09:55:04;;;;;;;7.18;3.47;;;;;;;16.83;82.89;97380.56;4974777;28;20104;-81
2022/10/03 09:57:58;;;;;;;6.25;3.70;;;;;;;16.89;82.45;97381.72;4914307;29;20102;-79
2022/10/03 10:00:56;;;;;;;8.05;3.22;;;;;;;16.95;82.26;97387.56;4914874;29;20103;-81
2022/10/03 10:03:46;;;;;;;12.90;8.13;;;;;;;16.86;81.97;97374.22;4912238;29;20048;-78
2022/10/03 10:06:21;;;;;;;9.20;3.03;;;;;;;16.96;81.51;97388.38;4914388;29;20048;-79
2022/10/03 10:09:24;;;;;;;6.10;3.20;;;;;;;16.91;81.31;97376.56;4896096;29;20076;-80
2022/10/03 10:12:15;;;;;;;8.07;3.20;;;;;;;16.83;81.63;97401.84;4896093;29;20049;-79
2022/10/03 10:15:03;;;;;;;11.82;2.97;;;;;;;16.64;82.53;97401.09;4895899;29;20063;-80
2022/10/03 10:17:48;;;;;;;6.72;3.15;;;;;;;16.56;81.84;97418.09;4896423;29;20515;-78
2022/10/03 10:20:32;;;;;;;6.03;3.53;;;;;;;16.07;79.22;97430.78;4909639;29;20040;-79
2022/10/03 10:23:41;;;;;;;16.80;7.80;;;;;;;15.80;80.27;97450.47;4914513;29;20048;-81
2022/10/03 10:26:33;;;;;;;7.60;3.97;;;;;;;15.66;81.82;97450.41;4914216;29;20139;-78
2022/10/03 10:29:23;;;;;;;10.18;5.10;;;;;;;15.37;82.08;97439.38;4913617;29;20048;-81
2022/10/03 10:32:25;;;;;;;8.20;2.83;;;;;;;15.45;81.22;97460.22;4914177;29;20567;-80
2022/10/03 10:34:52;;;;;;;2.95;1.73;;;;;;;15.41;80.48;97458.66;4939150;28;20055;-80
2022/10/03 10:37:31;;;;;;;2.45;1.70;;;;;;;15.49;80.21;97458.25;4954550;29;20052;-77
2022/10/03 10:40:25;;;;;;;2.13;1.55;;;;;;;15.54;78.65;97467.34;4954667;29;20195;-78
2022/10/03 10:43:16;;;;;;;4.10;1.70;;;;;;;15.61;79.39;97467.34;4955451;28;20420;-81
2022/10/03 10:45:56;;;;;;;5.30;1.60;;;;;;;15.65;78.84;97490.94;4954550;28;20055;-79
2022/10/03 10:48:56;;;;;;;2.60;1.90;;;;;;;15.57;77.37;97486.63;4954542;28;20446;-79
2022/10/03 10:51:44;;;;;;;6.25;2.00;;;;;;;15.58;77.70;97490.94;4954387;28;20070;-79
2022/10/03 10:54:36;;;;;;;6.95;2.55;;;;;;;15.58;78.14;97499.19;4954013;29;20112;-78
2022/10/03 10:57:40;;;;;;;3.38;2.28;;;;;;;15.66;78.80;97494.47;4972220;28;20485;-79
2022/10/03 11:00:29;;;;;;;5.13;2.00;;;;;;;15.65;78.22;97512.97;4932604;29;20043;-80
2022/10/03 11:03:11;;;;;;;6.43;3.75;;;;;;;15.75;78.38;97514.22;4970981;28;20057;-79
2022/10/03 11:06:16;;;;;;;4.53;1.92;;;;;;;15.71;76.92;97524.44;4953960;29;20074;-79
2022/10/03 11:09:30;;;;;;;6.05;1.67;;;;;;;15.70;77.50;97520.13;4953871;29;20051;-80
2022/10/03 11:12:12;;;;;;;2.05;1.60;;;;;;;15.82;76.90;97552.00;4953874;28;20056;-78
2022/10/03 11:14:47;;;;;;;2.35;1.80;;;;;;;15.80;76.88;97551.63;4972832;28;20081;-79
2022/10/03 11:17:46;;;;;;;4.75;2.72;;;;;;;15.58;76.30;97551.53;4973172;28;20405;-79
2022/10/03 11:21:03;;;;;;;8.88;2.70;;;;;;;15.35;74.45;97578.59;4973173;28;20070;-80
2022/10/03 11:23:44;;;;;;;3.67;2.30;;;;;;;15.20;75.64;97573.03;4957675;28;20138;-79
2022/10/03 11:26:26;;;;;;;5.32;2.20;;;;;;;14.96;74.67;97590.19;4953921;29;20054;-79
2022/10/03 11:29:13;;;;;;;8.30;2.20;;;;;;;15.01;75.87;97587.06;4953619;29;20043;-79
2022/10/03 11:32:17;;;;;;;6.57;2.80;;;;;;;15.13;75.74;97585.94;4954189;28;20046;-79
2022/10/03 11:35:20;;;;;;;4.35;1.80;;;;;;;15.41;73.90;97596.31;4972707;28;20412;-80
2022/10/03 11:38:19;;;;;;;8.98;1.50;;;;;;;15.50;71.67;97605.78;4960469;28;20444;-78
2022/10/03 11:40:59;;;;;;;5.80;1.85;;;;;;;15.48;70.00;97602.63;4972815;28;20501;-80
2022/10/03 11:43:53;;;;;;;7.63;1.30;;;;;;;15.23;68.15;97599.78;4972807;28;20125;-80
2022/10/03 11:46:36;;;;;;;2.10;1.17;;;;;;;15.10;66.10;97631.56;4959492;28;20054;-79
2022/10/03 11:49:20;;;;;;;1.08;0.80;;;;;;;15.04;67.02;97644.09;4953487;29;20043;-79
2022/10/03 11:52:17;;;;;;;2.67;1.10;;;;;;;15.09;66.69;97635.47;4953449;28;20054;-78
2022/10/03 11:54:48;;;;;;;1.00;0.90;;;;;;;15.36;66.54;97638.75;4953478;28;20047;-78
2022/10/03 11:57:29;;;;;;;0.80;0.80;;;;;;;15.33;65.43;97633.22;4953143;28;20047;-79
2022/10/03 12:00:21;;;;;;;2.42;1.00;;;;;;;15.14;67.39;97631.56;4953417;29;20102;-79
2022/10/03 12:03:18;;;;;;;4.85;1.20;;;;;;;14.84;66.12;97645.53;4936208;29;20046;-79
2022/10/03 12:09:21;;;;;;;3.95;0.80;;;;;;;14.56;65.02;97680.66;4953210;29;20412;-79
2022/10/03 12:12:08;;;;;;;1.15;0.93;;;;;;;14.45;65.58;97684.44;4960721;28;20085;-78
2022/10/03 12:14:45;;;;;;;3.95;1.00;;;;;;;14.34;64.56;97670.63;4958708;28;20520;-80
2022/10/03 12:17:33;;;;;;;0.98;0.73;;;;;;;14.22;65.49;97703.84;4953513;29;20039;-80
2022/10/03 12:20:18;;;;;;;1.00;0.68;;;;;;;14.10;64.96;97707.63;4961298;28;20035;-79
2022/10/03 12:22:50;;;;;;;3.58;0.80;;;;;;;13.82;64.46;97711.63;4953279;29;20505;-79
2022/10/03 12:25:33;;;;;;;1.25;0.82;;;;;;;13.65;65.03;97709.47;4953030;29;20058;-79
2022/10/03 12:28:15;;;;;;;3.13;0.82;;;;;;;13.55;65.10;97740.31;4962333;28;20047;-79
2022/10/03 12:30:50;;;;;;;0.73;0.73;;;;;;;13.33;68.80;97750.19;4959848;28;20077;-81
2022/10/03 12:33:27;;;;;;;;;;;;;;;13.31;72.07;97745.06;4953337;28;20596;-77
2022/10/03 12:36:16;;;;;;;4.10;1.20;;;;;;;13.39;71.73;97741.25;4952880;28;19922;-80
2022/10/03 12:39:21;;;;;;;1.75;1.08;;;;;;;13.49;71.48;97753.56;4967070;28;20047;-77
2022/10/03 12:42:25;;;;;;;0.80;0.80;;;;;;;13.30;69.00;97748.97;4959540;28;20102;-81
2022/10/03 12:45:14;;;;;;;1.67;1.02;;;;;;;13.12;68.94;97773.34;4952037;28;20078;-77
2022/10/03 12:48:18;;;;;;;4.38;1.70;;;;;;;13.09;68.22;97787.03;4955644;28;20047;-74
2022/10/03 12:51:34;;;;;;;4.18;0.80;;;;;;;13.11;68.08;97788.25;4952145;28;20418;-73
2022/10/03 12:54:43;;;;;;;2.85;1.02;;;;;;;13.09;67.60;97804.28;4952096;28;20043;-76
2022/10/03 12:57:21;;;;;;;5.85;1.10;;;;;;;12.99;66.35;97815.84;4962720;28;20047;-74
2022/10/03 13:00:05;;;;;;;9.00;1.05;;;;;;;12.95;67.05;97817.75;4962143;28;20039;-74
2022/10/03 13:03:01;;;;;;;4.72;1.00;;;;;;;12.90;66.25;97824.31;4968614;28;20525;-76
2022/10/03 13:05:54;;;;;;;4.15;1.27;;;;;;;12.79;64.44;97839.78;4975721;28;20045;-76
2022/10/03 13:09:03;;;;;;;6.82;0.93;;;;;;;12.79;64.13;97841.75;4974441;28;20479;-78
2022/10/03 13:11:57;;;;;;;8.50;0.90;;;;;;;12.73;64.65;97843.97;4966688;28;20069;-76
2022/10/03 13:14:54;;;;;;;3.17;1.00;;;;;;;12.66;64.99;97849.34;4967711;28;20047;-80
2022/10/03 13:17:34;;;;;;;4.03;0.65;;;;;;;12.67;64.27;97864.63;4957018;28;20585;-74
2022/10/03 13:20:15;;;;;;;1.50;0.90;;;;;;;12.81;63.03;97858.59;4974346;28;20042;-76